sensor_id;sensor_type;location;lat;lon;timestamp;P1;durP1;ratioP1;P2;durP2;ratioP2
60239;SDS011;46102;39.012;-7.064;2022-12-11T00:01:15;4.20;;;2.00;;
60239;SDS011;46102;39.012;-7.064;2022-12-11T00:03:19;3.78;;;1.85;;
60239;SDS011;46102;39.012;-7.064;2022-12-11T00:05:19;4.53;;;1.95;;
60239;SDS011;46102;39.012;-7.064;2022-12-11T00:07:20;4.18;;;1.38;;
60239;SDS011;46102;39.012;-7.064;2022-12-11T00:09:21;3.90;;;1.30;;
60239;SDS011;46102;39.012;-7.064;2022-12-11T00:11:21;6.15;;;1.55;;
60239;SDS011;46102;39.012;-7.064;2022-12-11T00:13:22;4.05;;;1.85;;
60239;SDS011;46102;39.012;-7.064;2022-12-11T00:15:23;2.47;;;1.40;;
60239;SDS011;46102;39.012;-7.064;2022-12-11T00:17:24;4.00;;;1.65;;
60239;SDS011;46102;39.012;-7.064;2022-12-11T00:19:25;3.80;;;1.65;;
60239;SDS011;46102;39.012;-7.064;2022-12-11T00:21:25;3.70;;;1.80;;
60239;SDS011;46102;39.012;-7.064;2022-12-11T00:23:26;1.77;;;1.50;;
60239;SDS011;46102;39.012;-7.064;2022-12-11T00:25:27;2.03;;;1.42;;
60239;SDS011;46102;39.012;-7.064;2022-12-11T00:27:28;4.82;;;1.65;;
60239;SDS011;46102;39.012;-7.064;2022-12-11T00:29:29;2.53;;;1.30;;
60239;SDS011;46102;39.012;-7.064;2022-12-11T00:31:29;6.30;;;1.65;;
60239;SDS011;46102;39.012;-7.064;2022-12-11T00:33:31;6.38;;;1.67;;
60239;SDS011;46102;39.012;-7.064;2022-12-11T00:35:31;15.90;;;1.98;;
60239;SDS011;46102;39.012;-7.064;2022-12-11T00:37:32;2.10;;;1.20;;
60239;SDS011;46102;39.012;-7.064;2022-12-11T00:39:33;3.65;;;1.50;;
60239;SDS011;46102;39.012;-7.064;2022-12-11T00:41:33;4.18;;;1.65;;
60239;SDS011;46102;39.012;-7.064;2022-12-11T00:43:34;1.67;;;1.08;;
60239;SDS011;46102;39.012;-7.064;2022-12-11T00:45:35;3.40;;;1.58;;
60239;SDS011;46102;39.012;-7.064;2022-12-11T00:47:37;4.97;;;1.73;;
60239;SDS011;46102;39.012;-7.064;2022-12-11T00:49:38;3.65;;;1.20;;
60239;SDS011;46102;39.012;-7.064;2022-12-11T00:51:38;4.00;;;1.20;;
60239;SDS011;46102;39.012;-7.064;2022-12-11T00:53:39;1.92;;;1.10;;
60239;SDS011;46102;39.012;-7.064;2022-12-11T00:55:40;5.20;;;1.35;;
60239;SDS011;46102;39.012;-7.064;2022-12-11T00:57:41;4.20;;;1.00;;
60239;SDS011;46102;39.012;-7.064;2022-12-11T00:59:42;1.08;;;0.90;;
60239;SDS011;46102;39.012;-7.064;2022-12-11T01:01:43;2.47;;;1.05;;
60239;SDS011;46102;39.012;-7.064;2022-12-11T01:03:44;3.05;;;1.25;;
60239;SDS011;46102;39.012;-7.064;2022-12-11T01:05:51;4.55;;;1.02;;
60239;SDS011;46102;39.012;-7.064;2022-12-11T01:07:53;5.18;;;1.30;;
60239;SDS011;46102;39.012;-7.064;2022-12-11T01:09:54;2.03;;;1.10;;
60239;SDS011;46102;39.012;-7.064;2022-12-11T01:12:13;2.53;;;1.30;;
60239;SDS011;46102;39.012;-7.064;2022-12-11T01:14:14;1.73;;;1.52;;
60239;SDS011;46102;39.012;-7.064;2022-12-11T01:16:15;4.32;;;1.20;;
60239;SDS011;46102;39.012;-7.064;2022-12-11T01:18:15;3.80;;;1.65;;
60239;SDS011;46102;39.012;-7.064;2022-12-11T01:20:16;4.38;;;1.70;;
60239;SDS011;46102;39.012;-7.064;2022-12-11T01:22:18;1.25;;;1.10;;
60239;SDS011;46102;39.012;-7.064;2022-12-11T01:24:19;2.40;;;1.13;;
60239;SDS011;46102;39.012;-7.064;2022-12-11T01:26:19;3.50;;;1.20;;
60239;SDS011;46102;39.012;-7.064;2022-12-11T01:28:20;3.67;;;0.90;;
60239;SDS011;46102;39.012;-7.064;2022-12-11T01:30:22;4.45;;;1.00;;
60239;SDS011;46102;39.012;-7.064;2022-12-11T01:32:24;1.63;;;1.17;;
60239;SDS011;46102;39.012;-7.064;2022-12-11T01:34:27;1.42;;;0.90;;
60239;SDS011;46102;39.012;-7.064;2022-12-11T01:36:30;1.98;;;0.85;;
60239;SDS011;46102;39.012;-7.064;2022-12-11T01:38:30;8.40;;;1.33;;
60239;SDS011;46102;39.012;-7.064;2022-12-11T01:40:31;1.80;;;1.02;;
60239;SDS011;46102;39.012;-7.064;2022-12-11T01:42:32;3.33;;;0.80;;
60239;SDS011;46102;39.012;-7.064;2022-12-11T01:46:34;1.85;;;1.05;;
60239;SDS011;46102;39.012;-7.064;2022-12-11T01:48:36;2.05;;;1.30;;
60239;SDS011;46102;39.012;-7.064;2022-12-11T01:50:38;1.85;;;0.90;;
60239;SDS011;46102;39.012;-7.064;2022-12-11T01:52:45;3.90;;;1.27;;
60239;SDS011;46102;39.012;-7.064;2022-12-11T01:54:47;0.98;;;0.88;;
60239;SDS011;46102;39.012;-7.064;2022-12-11T01:56:51;1.23;;;1.10;;
60239;SDS011;46102;39.012;-7.064;2022-12-11T01:58:55;0.70;;;0.70;;
60239;SDS011;46102;39.012;-7.064;2022-12-11T02:00:59;2.38;;;1.00;;
60239;SDS011;46102;39.012;-7.064;2022-12-11T02:03:02;1.00;;;0.80;;
60239;SDS011;46102;39.012;-7.064;2022-12-11T02:05:03;0.80;;;0.80;;
60239;SDS011;46102;39.012;-7.064;2022-12-11T02:07:05;0.80;;;0.75;;
60239;SDS011;46102;39.012;-7.064;2022-12-11T02:09:08;2.53;;;0.80;;
60239;SDS011;46102;39.012;-7.064;2022-12-11T02:11:14;2.95;;;0.70;;
60239;SDS011;46102;39.012;-7.064;2022-12-11T02:13:31;0.88;;;0.88;;
60239;SDS011;46102;39.012;-7.064;2022-12-11T02:15:41;0.82;;;0.82;;
60239;SDS011;46102;39.012;-7.064;2022-12-11T02:20:23;0.80;;;0.60;;
60239;SDS011;46102;39.012;-7.064;2022-12-11T02:25:08;0.75;;;0.75;;
60239;SDS011;46102;39.012;-7.064;2022-12-11T02:27:35;2.05;;;0.65;;
60239;SDS011;46102;39.012;-7.064;2022-12-11T02:29:50;2.13;;;0.70;;
60239;SDS011;46102;39.012;-7.064;2022-12-11T02:32:04;4.78;;;0.73;;
60239;SDS011;46102;39.012;-7.064;2022-12-11T02:34:16;5.05;;;0.60;;
60239;SDS011;46102;39.012;-7.064;2022-12-11T02:36:21;0.80;;;0.80;;
60239;SDS011;46102;39.012;-7.064;2022-12-11T02:38:27;2.15;;;0.50;;
60239;SDS011;46102;39.012;-7.064;2022-12-11T02:40:34;3.25;;;0.50;;
60239;SDS011;46102;39.012;-7.064;2022-12-11T02:42:39;11.35;;;0.93;;
60239;SDS011;46102;39.012;-7.064;2022-12-11T02:44:42;3.00;;;0.85;;
60239;SDS011;46102;39.012;-7.064;2022-12-11T02:46:44;4.07;;;0.98;;
60239;SDS011;46102;39.012;-7.064;2022-12-11T02:48:45;4.07;;;1.10;;
60239;SDS011;46102;39.012;-7.064;2022-12-11T02:50:50;5.43;;;0.65;;
60239;SDS011;46102;39.012;-7.064;2022-12-11T02:54:55;0.95;;;0.50;;
60239;SDS011;46102;39.012;-7.064;2022-12-11T02:57:02;0.70;;;0.70;;
60239;SDS011;46102;39.012;-7.064;2022-12-11T02:59:11;1.10;;;0.70;;
60239;SDS011;46102;39.012;-7.064;2022-12-11T03:01:15;1.10;;;0.90;;
60239;SDS011;46102;39.012;-7.064;2022-12-11T03:03:16;0.65;;;0.65;;
60239;SDS011;46102;39.012;-7.064;2022-12-11T03:05:17;9.18;;;0.82;;
60239;SDS011;46102;39.012;-7.064;2022-12-11T03:07:19;1.00;;;0.77;;
60239;SDS011;46102;39.012;-7.064;2022-12-11T03:09:24;1.45;;;0.82;;
60239;SDS011;46102;39.012;-7.064;2022-12-11T03:11:26;3.20;;;0.63;;
60239;SDS011;46102;39.012;-7.064;2022-12-11T03:13:27;7.30;;;0.90;;
60239;SDS011;46102;39.012;-7.064;2022-12-11T03:15:31;15.13;;;1.05;;
60239;SDS011;46102;39.012;-7.064;2022-12-11T03:18:03;1.70;;;0.60;;
60239;SDS011;46102;39.012;-7.064;2022-12-11T03:22:27;21.25;;;1.00;;
60239;SDS011;46102;39.012;-7.064;2022-12-11T03:24:39;2.67;;;0.68;;
60239;SDS011;46102;39.012;-7.064;2022-12-11T03:26:42;32.80;;;1.48;;
60239;SDS011;46102;39.012;-7.064;2022-12-11T03:28:50;3.78;;;0.70;;
60239;SDS011;46102;39.012;-7.064;2022-12-11T03:31:02;49.22;;;2.00;;
60239;SDS011;46102;39.012;-7.064;2022-12-11T03:33:08;14.68;;;0.80;;
60239;SDS011;46102;39.012;-7.064;2022-12-11T03:35:24;11.70;;;0.73;;
60239;SDS011;46102;39.012;-7.064;2022-12-11T03:37:30;3.88;;;0.50;;
60239;SDS011;46102;39.012;-7.064;2022-12-11T03:39:35;31.65;;;2.22;;
60239;SDS011;46102;39.012;-7.064;2022-12-11T03:41:39;0.70;;;0.35;;
60239;SDS011;46102;39.012;-7.064;2022-12-11T03:43:43;0.35;;;0.35;;
60239;SDS011;46102;39.012;-7.064;2022-12-11T03:45:45;0.38;;;0.38;;
60239;SDS011;46102;39.012;-7.064;2022-12-11T03:47:47;8.82;;;0.55;;
60239;SDS011;46102;39.012;-7.064;2022-12-11T03:49:51;8.15;;;0.45;;
60239;SDS011;46102;39.012;-7.064;2022-12-11T03:51:55;2.00;;;0.30;;
60239;SDS011;46102;39.012;-7.064;2022-12-11T03:53:59;3.97;;;0.20;;
60239;SDS011;46102;39.012;-7.064;2022-12-11T03:56:00;0.47;;;0.22;;
60239;SDS011;46102;39.012;-7.064;2022-12-11T03:58:03;1.00;;;0.20;;
60239;SDS011;46102;39.012;-7.064;2022-12-11T04:00:06;0.80;;;0.20;;
60239;SDS011;46102;39.012;-7.064;2022-12-11T04:02:15;0.20;;;0.20;;
60239;SDS011;46102;39.012;-7.064;2022-12-11T04:04:15;0.60;;;0.10;;
60239;SDS011;46102;39.012;-7.064;2022-12-11T04:06:16;0.00;;;0.00;;
60239;SDS011;46102;39.012;-7.064;2022-12-11T04:08:17;0.00;;;0.00;;
60239;SDS011;46102;39.012;-7.064;2022-12-11T04:10:22;0.00;;;0.00;;
60239;SDS011;46102;39.012;-7.064;2022-12-11T04:12:22;0.00;;;0.00;;
60239;SDS011;46102;39.012;-7.064;2022-12-11T04:14:23;0.17;;;0.00;;
60239;SDS011;46102;39.012;-7.064;2022-12-11T04:16:42;0.10;;;0.10;;
60239;SDS011;46102;39.012;-7.064;2022-12-11T04:18:43;0.05;;;0.05;;
60239;SDS011;46102;39.012;-7.064;2022-12-11T04:21:02;0.10;;;0.00;;
60239;SDS011;46102;39.012;-7.064;2022-12-11T04:23:22;3.10;;;0.10;;
60239;SDS011;46102;39.012;-7.064;2022-12-11T04:25:41;0.40;;;0.00;;
60239;SDS011;46102;39.012;-7.064;2022-12-11T04:27:42;0.00;;;0.00;;
60239;SDS011;46102;39.012;-7.064;2022-12-11T04:29:48;0.08;;;0.00;;
60239;SDS011;46102;39.012;-7.064;2022-12-11T04:31:49;0.35;;;0.10;;
60239;SDS011;46102;39.012;-7.064;2022-12-11T04:33:49;0.05;;;0.00;;
60239;SDS011;46102;39.012;-7.064;2022-12-11T04:35:50;0.00;;;0.00;;
60239;SDS011;46102;39.012;-7.064;2022-12-11T04:37:51;0.10;;;0.00;;
60239;SDS011;46102;39.012;-7.064;2022-12-11T04:39:52;0.00;;;0.00;;
60239;SDS011;46102;39.012;-7.064;2022-12-11T04:41:53;1.30;;;0.10;;
60239;SDS011;46102;39.012;-7.064;2022-12-11T04:43:53;0.30;;;0.10;;
60239;SDS011;46102;39.012;-7.064;2022-12-11T04:46:04;0.00;;;0.00;;
60239;SDS011;46102;39.012;-7.064;2022-12-11T04:48:05;0.20;;;0.10;;
60239;SDS011;46102;39.012;-7.064;2022-12-11T04:50:07;0.65;;;0.10;;
60239;SDS011;46102;39.012;-7.064;2022-12-11T04:52:09;0.20;;;0.10;;
60239;SDS011;46102;39.012;-7.064;2022-12-11T04:54:09;0.10;;;0.10;;
60239;SDS011;46102;39.012;-7.064;2022-12-11T04:56:11;0.00;;;0.00;;
60239;SDS011;46102;39.012;-7.064;2022-12-11T04:58:14;0.10;;;0.10;;
60239;SDS011;46102;39.012;-7.064;2022-12-11T05:00:15;0.05;;;0.05;;
60239;SDS011;46102;39.012;-7.064;2022-12-11T05:02:16;0.00;;;0.00;;
60239;SDS011;46102;39.012;-7.064;2022-12-11T05:04:17;0.10;;;0.10;;
60239;SDS011;46102;39.012;-7.064;2022-12-11T05:06:18;0.43;;;0.10;;
60239;SDS011;46102;39.012;-7.064;2022-12-11T05:08:19;1.08;;;0.10;;
60239;SDS011;46102;39.012;-7.064;2022-12-11T05:10:20;0.10;;;0.10;;
60239;SDS011;46102;39.012;-7.064;2022-12-11T05:12:21;0.60;;;0.47;;
60239;SDS011;46102;39.012;-7.064;2022-12-11T05:14:22;19.00;;;0.55;;
60239;SDS011;46102;39.012;-7.064;2022-12-11T05:16:23;1.05;;;0.82;;
60239;SDS011;46102;39.012;-7.064;2022-12-11T05:18:24;0.10;;;0.10;;
60239;SDS011;46102;39.012;-7.064;2022-12-11T05:20:25;0.98;;;0.15;;
60239;SDS011;46102;39.012;-7.064;2022-12-11T05:22:25;8.10;;;0.30;;
60239;SDS011;46102;39.012;-7.064;2022-12-11T05:24:26;8.73;;;1.33;;
60239;SDS011;46102;39.012;-7.064;2022-12-11T05:26:27;3.20;;;0.20;;
60239;SDS011;46102;39.012;-7.064;2022-12-11T05:28:29;0.10;;;0.10;;
60239;SDS011;46102;39.012;-7.064;2022-12-11T05:30:31;0.05;;;0.00;;
60239;SDS011;46102;39.012;-7.064;2022-12-11T05:32:32;0.00;;;0.00;;
60239;SDS011;46102;39.012;-7.064;2022-12-11T05:34:32;0.00;;;0.00;;
60239;SDS011;46102;39.012;-7.064;2022-12-11T05:36:33;0.00;;;0.00;;
60239;SDS011;46102;39.012;-7.064;2022-12-11T05:38:34;0.00;;;0.00;;
60239;SDS011;46102;39.012;-7.064;2022-12-11T05:40:35;0.40;;;0.10;;
60239;SDS011;46102;39.012;-7.064;2022-12-11T05:42:36;0.00;;;0.00;;
60239;SDS011;46102;39.012;-7.064;2022-12-11T05:44:36;0.00;;;0.00;;
60239;SDS011;46102;39.012;-7.064;2022-12-11T05:46:37;0.00;;;0.00;;
60239;SDS011;46102;39.012;-7.064;2022-12-11T05:48:38;0.00;;;0.00;;
60239;SDS011;46102;39.012;-7.064;2022-12-11T05:50:40;0.00;;;0.00;;
60239;SDS011;46102;39.012;-7.064;2022-12-11T05:52:40;0.10;;;0.00;;
60239;SDS011;46102;39.012;-7.064;2022-12-11T05:54:41;0.00;;;0.00;;
60239;SDS011;46102;39.012;-7.064;2022-12-11T05:56:42;0.08;;;0.08;;
60239;SDS011;46102;39.012;-7.064;2022-12-11T05:58:43;0.00;;;0.00;;
60239;SDS011;46102;39.012;-7.064;2022-12-11T06:00:44;0.00;;;0.00;;
60239;SDS011;46102;39.012;-7.064;2022-12-11T06:02:45;0.00;;;0.00;;
60239;SDS011;46102;39.012;-7.064;2022-12-11T06:04:46;0.00;;;0.00;;
60239;SDS011;46102;39.012;-7.064;2022-12-11T06:06:47;0.00;;;0.00;;
60239;SDS011;46102;39.012;-7.064;2022-12-11T06:08:51;0.03;;;0.03;;
60239;SDS011;46102;39.012;-7.064;2022-12-11T06:10:53;0.00;;;0.00;;
60239;SDS011;46102;39.012;-7.064;2022-12-11T06:12:54;0.00;;;0.00;;
60239;SDS011;46102;39.012;-7.064;2022-12-11T06:14:55;0.00;;;0.00;;
60239;SDS011;46102;39.012;-7.064;2022-12-11T06:16:55;0.10;;;0.10;;
60239;SDS011;46102;39.012;-7.064;2022-12-11T06:18:56;12.25;;;0.43;;
60239;SDS011;46102;39.012;-7.064;2022-12-11T06:20:57;0.10;;;0.10;;
60239;SDS011;46102;39.012;-7.064;2022-12-11T06:22:58;0.80;;;0.00;;
60239;SDS011;46102;39.012;-7.064;2022-12-11T06:24:59;6.72;;;0.20;;
60239;SDS011;46102;39.012;-7.064;2022-12-11T06:26:59;0.10;;;0.08;;
60239;SDS011;46102;39.012;-7.064;2022-12-11T06:29:00;0.00;;;0.00;;
60239;SDS011;46102;39.012;-7.064;2022-12-11T06:31:01;0.22;;;0.00;;
60239;SDS011;46102;39.012;-7.064;2022-12-11T06:33:02;0.73;;;0.03;;
60239;SDS011;46102;39.012;-7.064;2022-12-11T06:35:03;0.05;;;0.05;;
60239;SDS011;46102;39.012;-7.064;2022-12-11T06:37:04;1.45;;;0.30;;
60239;SDS011;46102;39.012;-7.064;2022-12-11T06:39:06;4.65;;;0.63;;
60239;SDS011;46102;39.012;-7.064;2022-12-11T06:41:07;2.95;;;0.20;;
60239;SDS011;46102;39.012;-7.064;2022-12-11T06:43:09;4.72;;;1.27;;
60239;SDS011;46102;39.012;-7.064;2022-12-11T06:45:10;3.03;;;0.52;;
60239;SDS011;46102;39.012;-7.064;2022-12-11T06:47:11;1.67;;;0.60;;
60239;SDS011;46102;39.012;-7.064;2022-12-11T06:49:11;4.18;;;0.70;;
60239;SDS011;46102;39.012;-7.064;2022-12-11T06:51:14;4.93;;;1.08;;
60239;SDS011;46102;39.012;-7.064;2022-12-11T06:53:17;1.85;;;1.10;;
60239;SDS011;46102;39.012;-7.064;2022-12-11T06:55:18;3.60;;;1.30;;
60239;SDS011;46102;39.012;-7.064;2022-12-11T06:57:18;7.07;;;0.73;;
60239;SDS011;46102;39.012;-7.064;2022-12-11T06:59:19;2.05;;;0.60;;
60239;SDS011;46102;39.012;-7.064;2022-12-11T07:01:24;1.77;;;0.40;;
60239;SDS011;46102;39.012;-7.064;2022-12-11T07:03:26;2.55;;;0.60;;
60239;SDS011;46102;39.012;-7.064;2022-12-11T07:05:27;10.88;;;0.75;;
60239;SDS011;46102;39.012;-7.064;2022-12-11T07:07:28;3.03;;;0.47;;
60239;SDS011;46102;39.012;-7.064;2022-12-11T07:09:29;1.77;;;0.35;;
60239;SDS011;46102;39.012;-7.064;2022-12-11T07:11:30;2.03;;;0.40;;
60239;SDS011;46102;39.012;-7.064;2022-12-11T07:13:31;6.03;;;0.68;;
60239;SDS011;46102;39.012;-7.064;2022-12-11T07:15:32;3.20;;;0.52;;
60239;SDS011;46102;39.012;-7.064;2022-12-11T07:17:33;4.78;;;0.80;;
60239;SDS011;46102;39.012;-7.064;2022-12-11T07:19:34;1.15;;;0.43;;
60239;SDS011;46102;39.012;-7.064;2022-12-11T07:21:35;4.18;;;0.65;;
60239;SDS011;46102;39.012;-7.064;2022-12-11T07:23:35;5.32;;;0.73;;
60239;SDS011;46102;39.012;-7.064;2022-12-11T07:25:37;4.72;;;1.02;;
60239;SDS011;46102;39.012;-7.064;2022-12-11T07:27:37;4.40;;;0.82;;
60239;SDS011;46102;39.012;-7.064;2022-12-11T07:29:38;5.25;;;1.25;;
60239;SDS011;46102;39.012;-7.064;2022-12-11T07:31:39;3.22;;;1.17;;
60239;SDS011;46102;39.012;-7.064;2022-12-11T07:33:40;1.52;;;0.63;;
60239;SDS011;46102;39.012;-7.064;2022-12-11T07:35:41;4.15;;;0.70;;
60239;SDS011;46102;39.012;-7.064;2022-12-11T07:37:42;3.75;;;1.00;;
60239;SDS011;46102;39.012;-7.064;2022-12-11T07:39:44;1.83;;;0.80;;
60239;SDS011;46102;39.012;-7.064;2022-12-11T07:41:44;2.80;;;0.70;;
60239;SDS011;46102;39.012;-7.064;2022-12-11T07:43:46;6.45;;;0.70;;
60239;SDS011;46102;39.012;-7.064;2022-12-11T07:45:46;5.65;;;1.23;;
60239;SDS011;46102;39.012;-7.064;2022-12-11T07:47:47;1.33;;;0.68;;
60239;SDS011;46102;39.012;-7.064;2022-12-11T07:49:48;1.58;;;0.70;;
60239;SDS011;46102;39.012;-7.064;2022-12-11T07:51:49;1.00;;;0.45;;
60239;SDS011;46102;39.012;-7.064;2022-12-11T07:53:49;3.75;;;0.63;;
60239;SDS011;46102;39.012;-7.064;2022-12-11T07:55:50;1.77;;;0.40;;
60239;SDS011;46102;39.012;-7.064;2022-12-11T07:57:51;1.10;;;0.57;;
60239;SDS011;46102;39.012;-7.064;2022-12-11T07:59:51;2.75;;;0.52;;
60239;SDS011;46102;39.012;-7.064;2022-12-11T08:01:52;0.90;;;0.30;;
60239;SDS011;46102;39.012;-7.064;2022-12-11T08:03:53;0.80;;;0.15;;
60239;SDS011;46102;39.012;-7.064;2022-12-11T08:05:55;1.25;;;0.28;;
60239;SDS011;46102;39.012;-7.064;2022-12-11T08:07:55;1.30;;;0.32;;
60239;SDS011;46102;39.012;-7.064;2022-12-11T08:09:56;1.45;;;0.40;;
60239;SDS011;46102;39.012;-7.064;2022-12-11T08:11:57;2.50;;;0.30;;
60239;SDS011;46102;39.012;-7.064;2022-12-11T08:13:58;1.00;;;0.20;;
60239;SDS011;46102;39.012;-7.064;2022-12-11T08:16:01;0.57;;;0.22;;
60239;SDS011;46102;39.012;-7.064;2022-12-11T08:18:04;0.60;;;0.28;;
60239;SDS011;46102;39.012;-7.064;2022-12-11T08:20:05;0.30;;;0.20;;
60239;SDS011;46102;39.012;-7.064;2022-12-11T08:22:05;0.80;;;0.40;;
60239;SDS011;46102;39.012;-7.064;2022-12-11T08:24:06;0.10;;;0.10;;
60239;SDS011;46102;39.012;-7.064;2022-12-11T08:26:09;2.63;;;0.30;;
60239;SDS011;46102;39.012;-7.064;2022-12-11T08:28:22;0.55;;;0.30;;
60239;SDS011;46102;39.012;-7.064;2022-12-11T08:30:22;1.05;;;0.20;;
60239;SDS011;46102;39.012;-7.064;2022-12-11T08:32:23;2.17;;;0.40;;
60239;SDS011;46102;39.012;-7.064;2022-12-11T08:34:24;0.17;;;0.17;;
60239;SDS011;46102;39.012;-7.064;2022-12-11T08:36:24;2.40;;;0.20;;
60239;SDS011;46102;39.012;-7.064;2022-12-11T08:38:25;1.10;;;0.20;;
60239;SDS011;46102;39.012;-7.064;2022-12-11T08:40:26;2.85;;;0.50;;
60239;SDS011;46102;39.012;-7.064;2022-12-11T08:42:27;2.97;;;0.60;;
60239;SDS011;46102;39.012;-7.064;2022-12-11T08:44:27;4.45;;;0.70;;
60239;SDS011;46102;39.012;-7.064;2022-12-11T08:46:29;2.85;;;0.52;;
60239;SDS011;46102;39.012;-7.064;2022-12-11T08:48:34;3.28;;;0.80;;
60239;SDS011;46102;39.012;-7.064;2022-12-11T08:50:36;1.20;;;0.75;;
60239;SDS011;46102;39.012;-7.064;2022-12-11T08:52:37;4.05;;;1.00;;
60239;SDS011;46102;39.012;-7.064;2022-12-11T08:54:38;3.42;;;0.63;;
60239;SDS011;46102;39.012;-7.064;2022-12-11T08:56:38;0.85;;;0.30;;
60239;SDS011;46102;39.012;-7.064;2022-12-11T08:58:39;2.22;;;0.50;;
60239;SDS011;46102;39.012;-7.064;2022-12-11T09:00:40;0.10;;;0.10;;
60239;SDS011;46102;39.012;-7.064;2022-12-11T09:02:41;1.08;;;0.20;;
60239;SDS011;46102;39.012;-7.064;2022-12-11T09:04:42;1.98;;;0.25;;
60239;SDS011;46102;39.012;-7.064;2022-12-11T09:06:42;1.30;;;0.82;;
60239;SDS011;46102;39.012;-7.064;2022-12-11T09:08:44;0.10;;;0.10;;
60239;SDS011;46102;39.012;-7.064;2022-12-11T09:10:45;0.25;;;0.25;;
60239;SDS011;46102;39.012;-7.064;2022-12-11T09:12:46;0.10;;;0.10;;
60239;SDS011;46102;39.012;-7.064;2022-12-11T09:14:47;0.32;;;0.22;;
60239;SDS011;46102;39.012;-7.064;2022-12-11T09:16:47;0.65;;;0.25;;
60239;SDS011;46102;39.012;-7.064;2022-12-11T09:18:49;0.80;;;0.77;;
60239;SDS011;46102;39.012;-7.064;2022-12-11T09:20:58;0.60;;;0.60;;
60239;SDS011;46102;39.012;-7.064;2022-12-11T09:23:00;0.70;;;0.70;;
60239;SDS011;46102;39.012;-7.064;2022-12-11T09:25:00;0.73;;;0.73;;
60239;SDS011;46102;39.012;-7.064;2022-12-11T09:27:01;1.48;;;1.38;;
60239;SDS011;46102;39.012;-7.064;2022-12-11T09:29:03;1.10;;;1.10;;
60239;SDS011;46102;39.012;-7.064;2022-12-11T09:31:09;1.20;;;1.10;;
60239;SDS011;46102;39.012;-7.064;2022-12-11T09:33:11;1.15;;;0.77;;
60239;SDS011;46102;39.012;-7.064;2022-12-11T09:35:11;2.15;;;0.43;;
60239;SDS011;46102;39.012;-7.064;2022-12-11T09:37:12;0.70;;;0.70;;
60239;SDS011;46102;39.012;-7.064;2022-12-11T09:39:14;1.38;;;0.75;;
60239;SDS011;46102;39.012;-7.064;2022-12-11T09:45:36;0.90;;;0.25;;
60239;SDS011;46102;39.012;-7.064;2022-12-11T09:47:39;0.30;;;0.30;;
60239;SDS011;46102;39.012;-7.064;2022-12-11T09:49:43;1.05;;;0.40;;
60239;SDS011;46102;39.012;-7.064;2022-12-11T09:51:47;1.10;;;0.52;;
60239;SDS011;46102;39.012;-7.064;2022-12-11T09:53:58;0.68;;;0.22;;
60239;SDS011;46102;39.012;-7.064;2022-12-11T09:56:03;0.40;;;0.28;;
60239;SDS011;46102;39.012;-7.064;2022-12-11T09:58:18;0.70;;;0.30;;
60239;SDS011;46102;39.012;-7.064;2022-12-11T10:00:42;0.40;;;0.20;;
60239;SDS011;46102;39.012;-7.064;2022-12-11T10:07:34;0.30;;;0.30;;
60239;SDS011;46102;39.012;-7.064;2022-12-11T10:14:38;0.70;;;0.45;;
60239;SDS011;46102;39.012;-7.064;2022-12-11T10:16:43;1.25;;;0.60;;
60239;SDS011;46102;39.012;-7.064;2022-12-11T10:18:49;2.13;;;1.15;;
60239;SDS011;46102;39.012;-7.064;2022-12-11T10:20:51;2.03;;;1.40;;
60239;SDS011;46102;39.012;-7.064;2022-12-11T10:22:53;2.08;;;0.85;;
60239;SDS011;46102;39.012;-7.064;2022-12-11T10:27:00;1.52;;;0.75;;
60239;SDS011;46102;39.012;-7.064;2022-12-11T10:29:14;0.93;;;0.47;;
60239;SDS011;46102;39.012;-7.064;2022-12-11T10:33:40;0.70;;;0.40;;
60239;SDS011;46102;39.012;-7.064;2022-12-11T10:35:50;0.30;;;0.20;;
60239;SDS011;46102;39.012;-7.064;2022-12-11T10:37:54;0.52;;;0.15;;
60239;SDS011;46102;39.012;-7.064;2022-12-11T10:40:00;1.40;;;0.52;;
60239;SDS011;46102;39.012;-7.064;2022-12-11T10:42:01;2.95;;;0.55;;
60239;SDS011;46102;39.012;-7.064;2022-12-11T10:44:27;2.00;;;0.43;;
60239;SDS011;46102;39.012;-7.064;2022-12-11T10:46:29;1.10;;;0.40;;
60239;SDS011;46102;39.012;-7.064;2022-12-11T10:48:32;1.95;;;0.30;;
60239;SDS011;46102;39.012;-7.064;2022-12-11T10:50:33;4.40;;;0.60;;
60239;SDS011;46102;39.012;-7.064;2022-12-11T10:52:34;3.45;;;0.50;;
60239;SDS011;46102;39.012;-7.064;2022-12-11T10:54:42;1.30;;;0.45;;
60239;SDS011;46102;39.012;-7.064;2022-12-11T10:56:46;3.92;;;0.52;;
60239;SDS011;46102;39.012;-7.064;2022-12-11T10:58:48;4.72;;;0.73;;
60239;SDS011;46102;39.012;-7.064;2022-12-11T11:01:04;2.90;;;0.50;;
60239;SDS011;46102;39.012;-7.064;2022-12-11T11:03:22;4.78;;;0.93;;
60239;SDS011;46102;39.012;-7.064;2022-12-11T11:07:29;2.50;;;0.47;;
60239;SDS011;46102;39.012;-7.064;2022-12-11T11:09:32;1.60;;;0.30;;
60239;SDS011;46102;39.012;-7.064;2022-12-11T11:11:35;2.03;;;0.45;;
60239;SDS011;46102;39.012;-7.064;2022-12-11T11:13:37;2.42;;;0.70;;
60239;SDS011;46102;39.012;-7.064;2022-12-11T11:15:38;2.72;;;0.73;;
60239;SDS011;46102;39.012;-7.064;2022-12-11T11:17:44;2.90;;;0.50;;
60239;SDS011;46102;39.012;-7.064;2022-12-11T11:19:47;2.67;;;0.60;;
60239;SDS011;46102;39.012;-7.064;2022-12-11T11:21:50;2.47;;;0.95;;
60239;SDS011;46102;39.012;-7.064;2022-12-11T11:23:53;3.03;;;1.60;;
60239;SDS011;46102;39.012;-7.064;2022-12-11T11:25:54;2.10;;;0.40;;
60239;SDS011;46102;39.012;-7.064;2022-12-11T11:30:03;7.28;;;1.60;;
60239;SDS011;46102;39.012;-7.064;2022-12-11T11:32:18;4.70;;;1.08;;
60239;SDS011;46102;39.012;-7.064;2022-12-11T11:34:21;5.03;;;0.95;;
60239;SDS011;46102;39.012;-7.064;2022-12-11T11:36:24;3.78;;;0.90;;
60239;SDS011;46102;39.012;-7.064;2022-12-11T11:38:28;5.38;;;1.08;;
60239;SDS011;46102;39.012;-7.064;2022-12-11T11:40:36;4.22;;;0.88;;
60239;SDS011;46102;39.012;-7.064;2022-12-11T11:42:46;11.40;;;1.35;;
60239;SDS011;46102;39.012;-7.064;2022-12-11T11:44:55;7.65;;;1.08;;
60239;SDS011;46102;39.012;-7.064;2022-12-11T11:47:14;9.77;;;1.65;;
60239;SDS011;46102;39.012;-7.064;2022-12-11T11:52:07;11.00;;;1.55;;
60239;SDS011;46102;39.012;-7.064;2022-12-11T11:54:42;8.00;;;1.70;;
60239;SDS011;46102;39.012;-7.064;2022-12-11T11:56:52;5.60;;;1.55;;
60239;SDS011;46102;39.012;-7.064;2022-12-11T11:59:03;8.30;;;1.27;;
60239;SDS011;46102;39.012;-7.064;2022-12-11T12:01:16;13.32;;;1.38;;
60239;SDS011;46102;39.012;-7.064;2022-12-11T12:03:19;8.88;;;1.75;;
60239;SDS011;46102;39.012;-7.064;2022-12-11T12:05:24;8.47;;;1.67;;
60239;SDS011;46102;39.012;-7.064;2022-12-11T12:07:42;9.18;;;2.35;;
60239;SDS011;46102;39.012;-7.064;2022-12-11T12:14:37;9.18;;;1.75;;
60239;SDS011;46102;39.012;-7.064;2022-12-11T12:19:13;7.75;;;1.55;;
60239;SDS011;46102;39.012;-7.064;2022-12-11T12:36:37;3.53;;;1.67;;
60239;SDS011;46102;39.012;-7.064;2022-12-11T12:39:05;7.95;;;1.20;;
60239;SDS011;46102;39.012;-7.064;2022-12-11T12:45:57;4.65;;;1.25;;
60239;SDS011;46102;39.012;-7.064;2022-12-11T12:48:06;9.00;;;1.50;;
60239;SDS011;46102;39.012;-7.064;2022-12-11T12:50:12;16.10;;;1.83;;
60239;SDS011;46102;39.012;-7.064;2022-12-11T12:54:17;8.25;;;1.35;;
60239;SDS011;46102;39.012;-7.064;2022-12-11T12:56:19;4.53;;;1.20;;
60239;SDS011;46102;39.012;-7.064;2022-12-11T12:58:26;9.40;;;1.58;;
60239;SDS011;46102;39.012;-7.064;2022-12-11T13:00:31;9.23;;;1.45;;
60239;SDS011;46102;39.012;-7.064;2022-12-11T13:02:32;4.47;;;1.00;;
60239;SDS011;46102;39.012;-7.064;2022-12-11T13:04:40;8.90;;;1.25;;
60239;SDS011;46102;39.012;-7.064;2022-12-11T13:06:43;4.63;;;2.13;;
60239;SDS011;46102;39.012;-7.064;2022-12-11T13:08:46;8.73;;;1.58;;
60239;SDS011;46102;39.012;-7.064;2022-12-11T13:10:55;7.38;;;1.48;;
60239;SDS011;46102;39.012;-7.064;2022-12-11T13:13:00;11.07;;;1.70;;
60239;SDS011;46102;39.012;-7.064;2022-12-11T13:15:03;9.10;;;1.10;;
60239;SDS011;46102;39.012;-7.064;2022-12-11T13:21:28;5.63;;;2.13;;
60239;SDS011;46102;39.012;-7.064;2022-12-11T13:23:31;7.75;;;1.98;;